Time;durP1;ratioP1;P1;durP2;ratioP2;P2;SDS_P1;SDS_P2;PMS_P1;PMS_P2;Temp;Humidity;BMP_temperature;BMP_pressure;BME280_temperature;BME280_humidity;BME280_pressure;Samples;Min_cycle;Max_cycle;Signal;HPM_P1;HPM_P2
2022/05/12 03:59:10;;;;;;;;;;;;;;;15.23;82.39;100479.91;6534713;27;19964;-83
2022/05/12 04:02:14;;;;;;;;;;;;;;;15.35;81.78;100476.34;6556356;27;35438;-82
2022/05/12 04:05:18;;;;;;;;;;;;;;;15.41;81.42;100472.84;6577472;27;34236;-82
2022/05/12 04:08:24;;;;;;;;;;;;;;;15.49;81.05;100485.34;6576773;27;34635;-83
2022/05/12 04:11:27;;;;;;;;;;;;;;;15.59;80.78;100482.22;6556609;27;34753;-84
2022/05/12 04:14:29;;;;;;;;;;;;;;;15.62;80.99;100487.25;6576549;27;34055;-85
2022/05/12 04:17:32;;;;;;;;;;;;;;;15.71;80.53;100483.31;6563422;27;34510;-82
2022/05/12 04:20:34;;;;;;;;;;;;;;;15.87;79.34;100484.78;6587943;27;34477;-83
2022/05/12 04:23:40;;;;;;;;;;;;;;;15.92;79.76;100479.53;6561662;27;34574;-82
2022/05/12 04:26:43;;;;;;;;;;;;;;;15.95;79.54;100487.28;6576673;27;34418;-82
2022/05/12 04:29:45;;;;;;;;;;;;;;;16.05;79.03;100486.84;6556479;27;34905;-82
2022/05/12 04:32:47;;;;;;;;;;;;;;;16.14;78.77;100488.28;6556506;27;34079;-83
2022/05/12 04:35:50;;;;;;;;;;;;;;;16.26;78.48;100491.19;6556983;27;34987;-82
2022/05/12 04:38:53;;;;;;;;;;;;;;;16.38;77.42;100492.22;6577438;27;34250;-82
2022/05/12 04:41:56;;;;;;;;;;;;;;;16.47;76.95;100490.94;6558589;27;34401;-86
2022/05/12 04:44:58;;;;;;;;;;;;;;;16.64;75.73;100491.28;6577130;27;35152;-86
2022/05/12 04:48:04;;;;;;;;;;;;;;;16.84;75.04;100498.56;6558462;27;34904;-86
2022/05/12 04:51:08;;;;;;;;;;;;;;;17.08;73.60;100505.13;6557830;27;35162;-83
2022/05/12 04:54:10;;;;;;;;;;;;;;;17.18;72.93;100503.62;6557332;27;35223;-84
2022/05/12 04:57:13;;;;;;;;;;;;;;;17.33;71.82;100508.75;6557033;27;34260;-84
2022/05/12 05:00:24;;;;;;;;;;;;;;;17.42;71.18;100507.44;6557995;27;33994;-84
2022/05/12 05:03:27;;;;;;;;;;;;;;;17.50;70.64;100514.50;6557339;27;35557;-84
2022/05/12 05:06:30;;;;;;;;;;;;;;;17.68;69.97;100508.31;6557825;27;34979;-84
2022/05/12 05:09:34;;;;;;;;;;;;;;;17.78;69.12;100513.28;6559099;27;34993;-84
2022/05/12 05:12:37;;;;;;;;;;;;;;;17.82;68.35;100520.78;6557198;27;35245;-83
2022/05/12 05:15:39;;;;;;;;;;;;;;;17.86;69.14;100513.00;6557764;27;33950;-84
2022/05/12 05:18:42;;;;;;;;;;;;;;;18.01;68.47;100510.75;6557453;27;34198;-84
2022/05/12 05:21:45;;;;;;;;;;;;;;;18.12;67.97;100512.75;6577593;27;34371;-84
2022/05/12 05:24:47;;;;;;;;;;;;;;;18.29;66.51;100513.03;6557049;27;35185;-84
2022/05/12 05:27:51;;;;;;;;;;;;;;;18.34;66.78;100517.81;6558130;26;34737;-84
2022/05/12 05:30:54;;;;;;;;;;;;;;;18.48;66.25;100518.47;6558284;27;34509;-84
2022/05/12 05:33:56;;;;;;;;;;;;;;;18.65;65.74;100521.44;6579789;27;34993;-84
2022/05/12 05:36:59;;;;;;;;;;;;;;;18.79;64.05;100515.63;6561258;27;34627;-84
2022/05/12 05:40:04;;;;;;;;;;;;;;;18.91;64.26;100512.13;6563114;27;34338;-83
2022/05/12 05:43:08;;;;;;;;;;;;;;;18.99;62.62;100515.37;6580806;27;34843;-83
2022/05/12 05:46:10;;;;;;;;;;;;;;;19.04;61.87;100517.41;6586280;27;34432;-83
2022/05/12 05:49:17;;;;;;;;;;;;;;;19.08;62.23;100515.91;6564000;26;34565;-83
2022/05/12 05:55:42;;;;;;;;;;;;;;;19.35;61.05;100515.53;6542878;27;34444;-83
2022/05/12 05:58:45;;;;;;;;;;;;;;;19.47;60.73;100517.22;6563045;27;34260;-84
2022/05/12 06:01:48;;;;;;;;;;;;;;;19.73;60.06;100522.53;6579297;27;34862;-84
2022/05/12 06:04:51;;;;;;;;;;;;;;;19.86;60.07;100523.16;6560711;27;34826;-83
2022/05/12 06:07:54;;;;;;;;;;;;;;;19.92;59.31;100513.19;6573523;27;35940;-84
2022/05/12 06:11:00;;;;;;;;;;;;;;;20.04;59.40;100527.69;6571779;27;34563;-83
2022/05/12 06:14:02;;;;;;;;;;;;;;;20.13;58.92;100531.75;6571284;26;34998;-84
2022/05/12 06:17:06;;;;;;;;;;;;;;;20.21;58.87;100527.84;6582087;27;34380;-84
2022/05/12 06:20:12;;;;;;;;;;;;;;;20.30;58.70;100520.06;6558149;27;34836;-83
2022/05/12 06:23:15;;;;;;;;;;;;;;;20.55;58.19;100519.84;6576634;27;34376;-83
2022/05/12 06:26:19;;;;;;;;;;;;;;;20.77;57.69;100517.31;6566837;27;35460;-83
2022/05/12 06:29:22;;;;;;;;;;;;;;;20.82;57.02;100525.63;6576476;26;37121;-84
2022/05/12 06:32:26;;;;;;;;;;;;;;;20.95;57.74;100516.31;6595711;27;35548;-84
2022/05/12 06:35:29;;;;;;;;;;;;;;;21.14;55.79;100519.69;6597944;27;35500;-83
2022/05/12 06:38:34;;;;;;;;;;;;;;;21.19;54.93;100520.62;6574055;27;34695;-87
2022/05/12 06:41:37;;;;;;;;;;;;;;;21.12;55.27;100519.09;6590013;27;35915;-86
2022/05/12 06:44:41;;;;;;;;;;;;;;;21.34;55.38;100517.34;6570048;27;35626;-88
2022/05/12 06:47:48;;;;;;;;;;;;;;;21.51;54.74;100518.22;6571489;26;34725;-84
2022/05/12 06:50:50;;;;;;;;;;;;;;;21.57;54.21;100518.34;6578122;27;34292;-84
2022/05/12 06:53:53;;;;;;;;;;;;;;;21.61;54.39;100514.00;6556856;27;35762;-85
2022/05/12 06:56:55;;;;;;;;;;;;;;;21.71;53.45;100516.94;6562668;27;35469;-85
2022/05/12 06:59:58;;;;;;;;;;;;;;;21.80;53.51;100518.19;6563259;27;34896;-85
2022/05/12 07:03:00;;;;;;;;;;;;;;;21.91;53.24;100522.75;6568794;26;34280;-85
2022/05/12 07:06:09;;;;;;;;;;;;;;;21.99;53.33;100534.38;6588609;27;34519;-85
2022/05/12 07:09:12;;;;;;;;;;;;;;;22.07;53.25;100526.56;6569572;27;32015;-85
2022/05/12 07:12:14;;;;;;;;;;;;;;;22.23;52.84;100532.31;6568238;27;34460;-85
2022/05/12 07:15:17;;;;;;;;;;;;;;;22.17;52.50;100531.41;6565649;26;32874;-85
2022/05/12 07:18:20;;;;;;;;;;;;;;;22.35;51.72;100525.66;6576560;27;34279;-85
2022/05/12 07:28:05;;;;;;;;;;;;;;;22.43;52.56;100524.38;6554821;27;34464;-85
2022/05/12 07:31:09;;;;;;;;;;;;;;;22.41;52.36;100510.94;6574572;27;34167;-85
2022/05/12 07:34:15;;;;;;;;;;;;;;;22.80;51.58;100515.53;6577147;27;34210;-85
2022/05/12 07:37:18;;;;;;;;;;;;;;;22.95;51.40;100514.94;6556539;27;34040;-85
2022/05/12 07:40:21;;;;;;;;;;;;;;;23.14;50.48;100510.75;6561743;27;34330;-85
2022/05/12 07:43:24;;;;;;;;;;;;;;;23.11;49.95;100505.78;6558228;27;34328;-85
2022/05/12 07:46:28;;;;;;;;;;;;;;;23.02;50.21;100510.91;6580522;27;34482;-85
2022/05/12 07:49:35;;;;;;;;;;;;;;;23.13;49.92;100513.75;6562872;27;34560;-84
2022/05/12 07:52:38;;;;;;;;;;;;;;;23.21;49.30;100510.56;6556670;27;32719;-84
2022/05/12 07:55:41;;;;;;;;;;;;;;;23.27;49.28;100513.09;6556394;27;34788;-85
2022/05/12 07:58:44;;;;;;;;;;;;;;;23.41;49.09;100504.44;6554728;27;32751;-85
2022/05/12 08:01:47;;;;;;;;;;;;;;;23.60;49.36;100505.69;6555583;27;32765;-84
2022/05/12 08:04:51;;;;;;;;;;;;;;;23.77;47.97;100505.63;6558846;26;35883;-84
2022/05/12 08:07:55;;;;;;;;;;;;;;;23.86;47.38;100505.97;6555980;27;34047;-84
2022/05/12 08:10:57;;;;;;;;;;;;;;;23.83;47.81;100509.22;6555041;27;35717;-84
2022/05/12 08:14:00;;;;;;;;;;;;;;;23.96;47.07;100506.88;6558568;27;33212;-84
2022/05/12 08:17:03;;;;;;;;;;;;;;;24.14;46.86;100511.13;6562129;27;34608;-85
2022/05/12 08:20:06;;;;;;;;;;;;;;;24.05;47.16;100509.97;6574832;27;34309;-88
2022/05/12 08:23:10;;;;;;;;;;;;;;;24.23;47.54;100511.47;6575463;27;34640;-90
2022/05/12 08:26:13;;;;;;;;;;;;;;;24.54;45.92;100500.63;6555831;27;33681;-88
2022/05/12 08:29:15;;;;;;;;;;;;;;;24.69;45.17;100497.13;6555871;27;35238;-89
2022/05/12 08:32:18;;;;;;;;;;;;;;;24.53;45.40;100508.06;6556978;26;33487;-84
2022/05/12 08:35:21;;;;;;;;;;;;;;;24.38;45.84;100507.97;6574232;27;35253;-84
2022/05/12 08:38:24;;;;;;;;;;;;;;;24.42;46.34;100501.72;6574680;27;33859;-85
2022/05/12 08:41:39;;;;;;;;;;;;;;;24.74;44.61;100500.72;6554055;27;35543;-85
2022/05/12 08:44:41;;;;;;;;;;;;;;;25.00;44.70;100501.66;6569854;26;33699;-85
2022/05/12 08:48:00;;;;;;;;;;;;;;;25.26;43.84;100510.03;6574477;27;34543;-84
2022/05/12 08:51:03;;;;;;;;;;;;;;;25.16;43.76;100501.75;6577503;27;35119;-84
2022/05/12 08:54:11;;;;;;;;;;;;;;;25.27;43.79;100507.00;6558158;27;33078;-84
2022/05/12 08:57:24;;;;;;;;;;;;;;;25.27;42.96;100500.66;6575552;27;34592;-85
2022/05/12 09:00:31;;;;;;;;;;;;;;;25.40;43.12;100494.63;6556378;27;34300;-84
2022/05/12 09:03:34;;;;;;;;;;;;;;;25.67;43.35;100502.63;6556161;27;32834;-84
2022/05/12 09:06:52;;;;;;;;;;;;;;;25.90;42.37;100493.00;6556616;27;34304;-84
2022/05/12 09:09:55;;;;;;;;;;;;;;;26.16;41.70;100502.09;6555123;27;34772;-85
2022/05/12 09:12:59;;;;;;;;;;;;;;;26.29;41.44;100503.41;6575301;27;35018;-84
2022/05/12 09:16:05;;;;;;;;;;;;;;;26.42;40.61;100504.78;6556146;27;34037;-84
2022/05/12 09:19:11;;;;;;;;;;;;;;;26.50;40.21;100507.00;6556037;27;32891;-84
2022/05/12 09:22:14;;;;;;;;;;;;;;;26.68;40.81;100502.81;6555335;27;36402;-85
2022/05/12 09:25:31;;;;;;;;;;;;;;;27.05;38.79;100501.50;6553776;27;34480;-84
2022/05/12 09:28:36;;;;;;;;;;;;;;;27.11;39.49;100500.38;6578734;27;34181;-84
2022/05/12 09:31:39;;;;;;;;;;;;;;;27.33;38.58;100503.59;6556727;26;35474;-84
2022/05/12 09:34:46;;;;;;;;;;;;;;;27.41;38.46;100507.69;6577624;27;34291;-83
2022/05/12 09:37:50;;;;;;;;;;;;;;;27.40;38.88;100497.72;6557012;27;32943;-84
2022/05/12 09:40:53;;;;;;;;;;;;;;;27.54;39.41;100497.91;6555689;27;34017;-89
2022/05/12 09:43:56;;;;;;;;;;;;;;;27.69;38.65;100499.72;6557428;27;34750;-89
2022/05/12 09:47:02;;;;;;;;;;;;;;;27.79;38.69;100494.16;6575503;27;34428;-88
2022/05/12 09:50:25;;;;;;;;;;;;;;;28.08;38.56;100491.41;6555777;27;33622;-84
2022/05/12 09:53:30;;;;;;;;;;;;;;;28.42;37.87;100494.09;6568142;27;34485;-83
2022/05/12 09:56:35;;;;;;;;;;;;;;;28.39;37.26;100491.88;6583586;27;34386;-82
2022/05/12 09:59:38;;;;;;;;;;;;;;;28.65;36.93;100484.13;6557244;26;32559;-83
2022/05/12 10:09:33;;;;;;;;;;;;;;;29.06;35.44;100475.28;6562418;27;34587;-83
2022/05/12 10:12:46;;;;;;;;;;;;;;;29.26;34.40;100476.94;6581731;27;34392;-83
2022/05/12 10:15:51;;;;;;;;;;;;;;;28.97;35.35;100468.75;6571576;27;33952;-82
2022/05/12 10:19:05;;;;;;;;;;;;;;;29.57;34.24;100466.19;6594595;27;35547;-83
2022/05/12 10:22:08;;;;;;;;;;;;;;;29.98;34.77;100457.19;6590059;27;152138;-83
2022/05/12 10:25:29;;;;;;;;;;;;;;;30.25;33.47;100463.94;6575559;27;34461;-83
2022/05/12 10:28:35;;;;;;;;;;;;;;;30.58;34.00;100458.25;6572859;26;33212;-83
2022/05/12 10:31:37;;;;;;;;;;;;;;;30.57;32.58;100451.03;6567502;27;34205;-87
2022/05/12 10:34:48;;;;;;;;;;;;;;;31.03;32.52;100447.28;6577012;27;34355;-88
2022/05/12 10:38:06;;;;;;;;;;;;;;;31.30;30.59;100447.22;6576312;27;34799;-84
2022/05/12 10:41:16;;;;;;;;;;;;;;;31.59;30.40;100440.37;6556883;27;33102;-84
2022/05/12 10:44:39;;;;;;;;;;;;;;;31.51;30.87;100441.97;6574857;27;33966;-84
2022/05/12 10:47:54;;;;;;;;;;;;;;;31.67;31.27;100445.19;6576145;27;34105;-84
2022/05/12 10:50:57;;;;;;;;;;;;;;;32.26;29.49;100437.50;6555719;27;35138;-83
2022/05/12 10:54:12;;;;;;;;;;;;;;;32.32;29.35;100445.69;6555162;27;33000;-84
2022/05/12 10:57:20;;;;;;;;;;;;;;;33.13;28.26;100437.69;6553790;27;33615;-84
2022/05/12 11:00:36;;;;;;;;;;;;;;;33.46;27.86;100437.19;6556148;27;34182;-84
2022/05/12 11:03:39;;;;;;;;;;;;;;;33.99;27.96;100435.09;6574779;27;34162;-84
2022/05/12 11:06:45;;;;;;;;;;;;;;;34.43;27.39;100432.97;6554170;27;34023;-83
2022/05/12 11:09:50;;;;;;;;;;;;;;;34.67;27.16;100430.41;6574078;27;34337;-84
2022/05/12 11:12:56;;;;;;;;;;;;;;;35.13;25.80;100428.59;6554913;27;32791;-84
2022/05/12 11:16:13;;;;;;;;;;;;;;;35.51;25.02;100433.19;6547659;27;35248;-84
2022/05/12 11:19:20;;;;;;;;;;;;;;;34.49;26.66;100421.28;6550927;27;32455;-84
2022/05/12 11:22:23;;;;;;;;;;;;;;;35.54;25.77;100421.31;6581425;27;34613;-84
2022/05/12 11:25:32;;;;;;;;;;;;;;;36.28;25.60;100415.84;6553102;27;35670;-88
2022/05/12 11:32:12;;;;;;;;;;;;;;;37.94;22.76;100417.59;6570679;27;34933;-85
2022/05/12 11:35:18;;;;;;;;;;;;;;;38.39;22.23;100399.41;6552506;27;32077;-85
2022/05/12 11:38:37;;;;;;;;;;;;;;;39.45;20.56;100399.28;6555064;27;32967;-85
2022/05/12 11:41:42;;;;;;;;;;;;;;;39.59;19.96;100399.56;6569711;27;34236;-85
2022/05/12 11:45:04;;;;;;;;;;;;;;;40.02;19.39;100402.38;6569219;27;34705;-84
2022/05/12 11:48:17;;;;;;;;;;;;;;;39.67;18.03;100397.69;6570088;27;34813;-85
2022/05/12 11:51:20;;;;;;;;;;;;;;;39.61;18.76;100396.37;6550073;27;34021;-83
2022/05/12 11:54:30;;;;;;;;;;;;;;;40.42;18.39;100406.63;6550133;27;32704;-84
2022/05/12 11:57:38;;;;;;;;;;;;;;;40.29;18.10;100398.38;6549621;27;35496;-84
2022/05/12 12:00:41;;;;;;;;;;;;;;;40.33;17.97;100393.59;6569039;27;34207;-84
2022/05/12 12:03:51;;;;;;;;;;;;;;;39.30;18.95;100389.75;6551280;27;35114;-84
2022/05/12 12:06:54;;;;;;;;;;;;;;;40.71;18.08;100391.75;6559438;27;32533;-84
2022/05/12 12:10:16;;;;;;;;;;;;;;;41.55;17.37;100383.91;6548623;26;33524;-84
2022/05/12 12:13:32;;;;;;;;;;;;;;;41.85;16.83;100380.13;6581010;27;35637;-88
2022/05/12 12:16:54;;;;;;;;;;;;;;;42.68;16.47;100381.56;6558420;27;32729;-84
2022/05/12 12:20:10;;;;;;;;;;;;;;;42.82;15.97;100380.84;6576997;27;34318;-84
2022/05/12 12:23:22;;;;;;;;;;;;;;;43.59;15.04;100381.53;6571545;27;34339;-84
2022/05/12 12:26:30;;;;;;;;;;;;;;;44.11;14.54;100371.44;6551967;27;35551;-84
2022/05/12 12:29:42;;;;;;;;;;;;;;;43.76;14.08;100369.37;6550499;27;34201;-84
2022/05/12 12:40:44;;;;;;;;;;;;;;;43.62;12.17;100372.22;6572849;27;34958;-84
2022/05/12 12:43:49;;;;;;;;;;;;;;;44.13;11.94;100371.81;6550148;27;34542;-84
2022/05/12 12:47:12;;;;;;;;;;;;;;;44.36;11.51;100376.28;6551582;27;34964;-84
2022/05/12 12:50:34;;;;;;;;;;;;;;;45.43;11.58;100367.31;6572949;27;34594;-85
2022/05/12 12:57:03;;;;;;;;;;;;;;;45.30;11.20;100360.47;6555971;27;32787;-84
2022/05/12 13:00:08;;;;;;;;;;;;;;;45.69;11.68;100351.69;6556701;27;33003;-84
2022/05/12 13:03:21;;;;;;;;;;;;;;;45.61;11.58;100355.81;6577248;27;34681;-84
2022/05/12 13:06:36;;;;;;;;;;;;;;;44.94;11.64;100345.66;6558934;27;33429;-84
2022/05/12 13:09:41;;;;;;;;;;;;;;;44.39;12.22;100347.06;6578361;27;34606;-84
2022/05/12 13:13:03;;;;;;;;;;;;;;;44.48;11.87;100361.63;6577433;27;34553;-84
2022/05/12 13:16:07;;;;;;;;;;;;;;;44.81;11.69;100351.78;6578373;27;34416;-85
2022/05/12 13:19:10;;;;;;;;;;;;;;;44.53;11.71;100340.53;6572315;27;34776;-84
2022/05/12 13:22:20;;;;;;;;;;;;;;;43.81;12.57;100339.81;6576239;27;35087;-84
2022/05/12 13:25:29;;;;;;;;;;;;;;;43.60;12.70;100349.13;6571504;27;35006;-84
2022/05/12 13:28:32;;;;;;;;;;;;;;;42.96;13.55;100344.09;6555782;27;33727;-83
2022/05/12 13:31:36;;;;;;;;;;;;;;;43.33;13.19;100343.00;6576059;27;34087;-85
2022/05/12 13:34:39;;;;;;;;;;;;;;;42.93;13.21;100345.69;6556504;27;34368;-83
2022/05/12 13:38:05;;;;;;;;;;;;;;;43.58;13.40;100337.38;6577874;27;34600;-84
2022/05/12 13:41:20;;;;;;;;;;;;;;;43.67;12.94;100341.44;6577472;27;34846;-84
2022/05/12 13:44:27;;;;;;;;;;;;;;;44.49;12.27;100339.72;6578141;27;34028;-82
2022/05/12 13:47:34;;;;;;;;;;;;;;;43.28;13.46;100330.03;6584663;27;34985;-82
2022/05/12 13:50:43;;;;;;;;;;;;;;;41.62;15.03;100324.59;6557653;27;34336;-82
2022/05/12 13:53:47;;;;;;;;;;;;;;;41.21;15.74;100327.41;6555833;27;33144;-82
2022/05/12 13:56:50;;;;;;;;;;;;;;;40.91;16.12;100329.50;6555975;27;34193;-82
2022/05/12 13:59:59;;;;;;;;;;;;;;;41.53;15.61;100314.84;6554817;27;32988;-83
2022/05/12 14:03:23;;;;;;;;;;;;;;;41.08;15.35;100313.97;6575806;27;35373;-85
2022/05/12 14:06:30;;;;;;;;;;;;;;;40.23;16.20;100337.03;6555868;27;34972;-85
2022/05/12 14:09:34;;;;;;;;;;;;;;;39.10;17.50;100326.97;6578295;27;34625;-85
2022/05/12 14:20:02;;;;;;;;;;;;;;;34.53;22.03;100324.34;6580205;27;34469;-85
2022/05/12 14:23:05;;;;;;;;;;;;;;;33.76;24.35;100325.63;6577215;27;34420;-85
2022/05/12 14:26:08;;;;;;;;;;;;;;;33.31;24.05;100326.06;6555657;27;35200;-85
2022/05/12 14:29:11;;;;;;;;;;;;;;;32.86;24.69;100313.31;6576351;27;34340;-84
2022/05/12 14:32:15;;;;;;;;;;;;;;;32.68;24.97;100311.69;6556078;27;32631;-85
2022/05/12 14:35:23;;;;;;;;;;;;;;;32.64;25.10;100313.47;6576358;27;34663;-85
2022/05/12 14:38:26;;;;;;;;;;;;;;;32.61;25.44;100308.56;6556209;27;34279;-84
2022/05/12 14:41:28;;;;;;;;;;;;;;;32.74;25.68;100302.81;6556099;27;33961;-85
2022/05/12 14:44:32;;;;;;;;;;;;;;;32.54;25.75;100306.28;6555560;26;33518;-85
2022/05/12 14:47:34;;;;;;;;;;;;;;;32.24;25.99;100297.69;6576269;27;34186;-85
2022/05/12 14:50:37;;;;;;;;;;;;;;;32.00;26.71;100300.94;6556386;27;33275;-84
2022/05/12 14:53:39;;;;;;;;;;;;;;;31.97;27.05;100297.94;6577277;27;34305;-84
2022/05/12 14:56:42;;;;;;;;;;;;;;;31.76;27.07;100303.25;6555118;27;33840;-84
2022/05/12 14:59:48;;;;;;;;;;;;;;;31.65;28.26;100299.97;6591990;27;33854;-84
2022/05/12 15:02:50;;;;;;;;;;;;;;;31.66;25.98;100300.78;6591869;27;34662;-84
2022/05/12 15:05:59;;;;;;;;;;;;;;;31.87;27.39;100287.09;6557734;27;34610;-84
2022/05/12 15:09:02;;;;;;;;;;;;;;;31.85;25.74;100284.63;6575681;27;34681;-84
2022/05/12 15:12:06;;;;;;;;;;;;;;;31.88;26.03;100288.72;6576321;27;34213;-84
2022/05/12 15:15:09;;;;;;;;;;;;;;;31.81;25.36;100290.00;6576286;27;34265;-84
2022/05/12 15:18:12;;;;;;;;;;;;;;;31.64;25.77;100292.72;6556633;27;33803;-84
2022/05/12 15:21:14;;;;;;;;;;;;;;;31.69;26.10;100300.12;6575574;27;34506;-84
2022/05/12 15:24:17;;;;;;;;;;;;;;;31.53;26.31;100297.78;6575855;27;33891;-85
2022/05/12 15:27:22;;;;;;;;;;;;;;;31.33;26.17;100293.56;6556161;26;34525;-85
2022/05/12 15:30:25;;;;;;;;;;;;;;;31.06;26.31;100288.16;6555597;27;33410;-85
2022/05/12 15:33:28;;;;;;;;;;;;;;;30.90;26.58;100282.97;6555942;27;34121;-84
2022/05/12 15:36:35;;;;;;;;;;;;;;;30.83;26.88;100293.75;6556876;26;32626;-84
2022/05/12 15:39:38;;;;;;;;;;;;;;;30.89;27.68;100289.69;6575705;27;34255;-84
2022/05/12 15:42:42;;;;;;;;;;;;;;;30.85;27.21;100294.22;6556118;27;32673;-84
2022/05/12 15:45:46;;;;;;;;;;;;;;;30.90;27.55;100291.31;6555944;27;32962;-84
2022/05/12 15:48:48;;;;;;;;;;;;;;;30.90;28.26;100294.09;6555729;27;34708;-84
2022/05/12 15:51:52;;;;;;;;;;;;;;;30.80;28.68;100293.53;6555828;26;33222;-84
2022/05/12 15:54:55;;;;;;;;;;;;;;;30.63;28.48;100291.41;6555904;27;34022;-84
2022/05/12 15:57:58;;;;;;;;;;;;;;;30.59;28.59;100290.38;6575085;27;34354;-84
